Time,TemperatureF,DewpointF,PressureIn,WindDirection,WindDirectionDegrees,WindSpeedMPH,WindSpeedGustMPH,Humidity,HourlyPrecipIn,Conditions,Clouds,dailyrainin,SoftwareType,DateUTC
2013-08-04 09:43:00,58.0,-99.9,29.66,WNW,292,6.0,10.0,0,-99.99,,,-99.99,,2013-08-04 13:43:00,
2013-08-04 09:52:00,58.0,-99.9,29.66,WNW,292,6.0,10.0,0,-99.99,,,-99.99,,2013-08-04 13:52:00,
2013-08-04 10:02:00,58.0,-99.9,29.66,WNW,292,6.0,10.0,0,-99.99,,,-99.99,,2013-08-04 14:02:00,
2013-08-04 10:43:00,65.0,-99.9,29.65,WNW,292,8.0,11.0,0,-99.99,,,-99.99,,2013-08-04 14:43:00,
2013-08-04 10:53:00,65.0,-99.9,29.65,WNW,292,8.0,11.0,0,-99.99,,,-99.99,,2013-08-04 14:53:00,
2013-08-04 11:02:00,65.0,-99.9,29.65,WNW,292,8.0,11.0,0,-99.99,,,-99.99,,2013-08-04 15:02:00,
2013-08-04 11:43:00,67.0,-99.9,29.65,WNW,292,5.0,14.0,0,-99.99,,,0.00,,2013-08-04 15:43:00,
2013-08-04 11:53:00,67.0,-99.9,29.65,WNW,292,5.0,14.0,0,-99.99,,,0.00,,2013-08-04 15:53:00,
2013-08-04 12:02:00,67.0,-99.9,29.65,WNW,292,5.0,14.0,0,-99.99,,,0.00,,2013-08-04 16:02:00,
2013-08-04 12:43:00,68.0,-99.9,29.64,NW,315,5.0,14.0,0,-99.99,,,0.00,,2013-08-04 16:43:00,
2013-08-04 12:53:00,68.0,-99.9,29.64,NW,315,5.0,14.0,0,-99.99,,,0.00,,2013-08-04 16:53:00,
2013-08-04 13:02:00,68.0,-99.9,29.64,NW,315,5.0,14.0,0,-99.99,,,0.00,,2013-08-04 17:02:00,
2013-08-04 13:43:00,69.0,-99.9,29.63,NNE,22,7.0,16.0,0,-99.99,,,0.00,,2013-08-04 17:43:00,
2013-08-04 13:53:00,69.0,-99.9,29.63,NNE,22,7.0,16.0,0,-99.99,,,0.00,,2013-08-04 17:53:00,
2013-08-04 14:02:00,69.0,-99.9,29.63,NNE,22,7.0,16.0,0,-99.99,,,0.00,,2013-08-04 18:02:00,
2013-08-04 14:43:00,71.0,-99.9,29.61,NNW,337,10.0,14.0,0,-99.99,,,0.00,,2013-08-04 18:43:00,
2013-08-04 14:52:00,71.0,-99.9,29.61,NNW,337,10.0,14.0,0,-99.99,,,0.00,,2013-08-04 18:52:00,
2013-08-04 15:02:00,71.0,-99.9,29.61,NNW,337,10.0,14.0,0,-99.99,,,0.00,,2013-08-04 19:02:00,
2013-08-04 15:44:00,65.0,-99.9,29.63,NNW,337,4.0,19.0,0,-99.99,,,0.00,,2013-08-04 19:44:00,
2013-08-04 15:53:00,65.0,-99.9,29.63,NNW,337,4.0,19.0,0,-99.99,,,0.00,,2013-08-04 19:53:00,
2013-08-04 16:02:00,65.0,-99.9,29.63,NNW,337,4.0,19.0,0,-99.99,,,0.00,,2013-08-04 20:02:00,
2013-08-04 16:43:00,68.0,-99.9,29.62,NNW,337,6.0,10.0,0,-99.99,,,0.00,,2013-08-04 20:43:00,
2013-08-04 16:53:00,68.0,-99.9,29.62,NNW,337,6.0,10.0,0,-99.99,,,0.00,,2013-08-04 20:53:00,
2013-08-04 17:02:00,68.0,-99.9,29.62,NNW,337,6.0,10.0,0,-99.99,,,0.00,,2013-08-04 21:02:00,
2013-08-04 17:43:00,66.0,-99.9,29.63,NW,315,9.0,17.0,0,-99.99,,,0.00,,2013-08-04 21:43:00,
2013-08-04 17:53:00,66.0,-99.9,29.63,NW,315,9.0,17.0,0,-99.99,,,0.00,,2013-08-04 21:53:00,
2013-08-04 18:02:00,66.0,-99.9,29.63,NW,315,9.0,17.0,0,-99.99,,,0.00,,2013-08-04 22:02:00,
2013-08-04 18:43:00,60.0,-99.9,29.65,West,270,7.0,16.0,0,-99.99,,,0.00,,2013-08-04 22:43:00,
2013-08-04 18:53:00,60.0,-99.9,29.65,West,270,7.0,16.0,0,-99.99,,,0.00,,2013-08-04 22:53:00,
2013-08-04 19:02:00,60.0,-99.9,29.65,West,270,7.0,16.0,0,-99.99,,,0.00,,2013-08-04 23:02:00,
2013-08-04 19:43:00,59.0,-99.9,29.68,SW,225,4.0,7.0,0,-99.99,,,0.00,,2013-08-04 23:43:00,
2013-08-04 19:53:00,59.0,-99.9,29.68,SW,225,4.0,7.0,0,-99.99,,,0.00,,2013-08-04 23:53:00,
2013-08-04 20:02:00,59.0,-99.9,29.68,SW,225,4.0,7.0,0,-99.99,,,0.00,,2013-08-05 00:02:00,
2013-08-04 20:42:00,59.0,-99.9,29.69,South,180,3.0,7.0,0,-99.99,,,0.00,,2013-08-05 00:42:00,
2013-08-04 20:53:00,59.0,-99.9,29.69,South,180,3.0,7.0,0,-99.99,,,0.00,,2013-08-05 00:53:00,
2013-08-04 21:02:00,59.0,-99.9,29.69,South,180,3.0,7.0,0,-99.99,,,0.00,,2013-08-05 01:02:00,